createdAt,value
2019-01-30T00:01:31.237Z,86.43
2019-01-30T00:04:22.646Z,86.03
2019-01-30T00:07:12.422Z,86.23
2019-01-30T00:10:02.600Z,85.58
2019-01-30T00:12:52.897Z,85.80
2019-01-30T00:15:34.282Z,86.55
2019-01-30T00:18:05.506Z,86.89
2019-01-30T00:20:55.783Z,86.67
2019-01-30T00:23:27.194Z,86.63
2019-01-30T00:25:57.737Z,86.72
2019-01-30T00:28:49.906Z,87.06
2019-01-30T00:31:39.646Z,87.13
2019-01-30T00:34:29.312Z,87.76
2019-01-30T00:37:18.694Z,87.58
2019-01-30T00:40:09.046Z,87.83
2019-01-30T00:42:59.021Z,87.73
2019-01-30T00:45:48.447Z,87.82
2019-01-30T00:48:38.192Z,87.45
2019-01-30T00:51:28.217Z,87.16
2019-01-30T00:54:18.197Z,86.86
2019-01-30T00:56:48.676Z,86.84
2019-01-30T00:59:38.524Z,86.83
2019-01-30T01:02:09.096Z,87.19
2019-01-30T01:04:40.422Z,87.38
2019-01-30T01:10:08.592Z,86.73
2019-01-30T01:12:39.097Z,86.41
2019-01-30T01:15:20.744Z,86.25
2019-01-30T01:18:02.935Z,86.55
2019-01-30T01:20:33.722Z,86.78
2019-01-30T01:23:18.169Z,86.56
2019-01-30T01:25:55.541Z,86.65
2019-01-30T01:28:45.735Z,86.33
2019-01-30T01:31:16.441Z,85.99
2019-01-30T01:33:46.921Z,86.13
2019-01-30T01:36:36.424Z,85.02
2019-01-30T01:39:25.850Z,84.91
2019-01-30T01:42:15.535Z,85.46
2019-01-30T01:45:08.034Z,86.41
2019-01-30T01:47:57.857Z,85.90
2019-01-30T01:50:47.291Z,85.34
2019-01-30T01:53:37.173Z,85.56
2019-01-30T01:56:27.258Z,85.47
2019-01-30T01:59:17.267Z,85.31
2019-01-30T02:02:07.147Z,84.70
2019-01-30T02:04:57.000Z,84.75
2019-01-30T02:08:02.606Z,84.75
2019-01-30T02:10:35.757Z,84.70
2019-01-30T02:13:06.704Z,84.73
2019-01-30T02:15:56.686Z,85.31
2019-01-30T02:18:46.165Z,85.22
2019-01-30T02:21:36.133Z,84.75
2019-01-30T02:24:25.715Z,83.64
2019-01-30T02:27:15.819Z,82.65
2019-01-30T02:30:07.758Z,83.95
2019-01-30T02:32:57.551Z,84.05
2019-01-30T02:35:47.003Z,83.91
2019-01-30T02:38:36.823Z,83.61
2019-01-30T02:41:26.391Z,83.15
2019-01-30T02:44:16.489Z,83.06
2019-01-30T02:47:05.863Z,81.90
2019-01-30T02:49:56.157Z,81.42
2019-01-30T02:52:38.537Z,80.87
2019-01-30T02:55:19.707Z,81.41
2019-01-30T02:58:09.229Z,81.28
2019-01-30T03:00:59.684Z,82.23
2019-01-30T03:04:08.061Z,82.80
2019-01-30T03:07:01.586Z,83.14
2019-01-30T03:09:32.075Z,83.39
2019-01-30T03:12:23.165Z,83.46
2019-01-30T03:14:55.821Z,83.00
2019-01-30T03:17:45.744Z,81.89
2019-01-30T03:20:18.391Z,81.87
2019-01-30T03:23:08.141Z,81.82
2019-01-30T03:25:57.846Z,81.57
2019-01-30T03:28:47.532Z,81.08
2019-01-30T03:34:13.529Z,80.83
2019-01-30T03:37:04.288Z,80.93
2019-01-30T03:39:53.973Z,82.08
2019-01-30T03:42:43.455Z,81.25
2019-01-30T03:45:34.731Z,80.30
2019-01-30T03:48:24.153Z,79.24
2019-01-30T03:51:04.338Z,79.43
2019-01-30T03:53:54.013Z,79.69
2019-01-30T03:56:44.015Z,80.07
2019-01-30T03:59:34.037Z,80.69
2019-01-30T04:02:05.056Z,80.97
2019-01-30T04:04:35.703Z,80.18
2019-01-30T04:07:06.265Z,80.03
2019-01-30T04:09:55.957Z,79.26
2019-01-30T04:12:45.443Z,79.38
2019-01-30T04:15:35.209Z,79.43
2019-01-30T04:18:24.706Z,79.40
2019-01-30T04:21:14.161Z,78.93
2019-01-30T04:24:05.983Z,77.90
2019-01-30T04:26:36.918Z,78.53
2019-01-30T04:29:07.307Z,79.32
2019-01-30T04:31:38.670Z,79.09
2019-01-30T04:34:29.194Z,80.07
2019-01-30T04:37:18.899Z,78.95
2019-01-30T04:40:09.914Z,79.22
2019-01-30T04:42:59.629Z,77.74
2019-01-30T04:45:49.278Z,77.27
2019-01-30T04:48:41.000Z,77.51
2019-01-30T04:51:11.503Z,78.23
2019-01-30T04:54:01.338Z,78.18
2019-01-30T04:56:31.701Z,77.97
2019-01-30T04:59:21.477Z,77.64
2019-01-30T05:02:11.605Z,77.42
2019-01-30T05:05:01.174Z,77.17
2019-01-30T05:07:50.787Z,77.48
2019-01-30T05:10:43.314Z,77.49
2019-01-30T05:13:32.998Z,78.17
2019-01-30T05:16:22.798Z,77.14
2019-01-30T05:19:12.209Z,77.14
2019-01-30T05:22:02.109Z,76.67
2019-01-30T05:24:51.743Z,76.61
2019-01-30T05:27:22.656Z,77.23
2019-01-30T05:30:13.773Z,78.39
2019-01-30T05:32:44.582Z,77.75
2019-01-30T05:35:15.011Z,78.69
2019-01-30T05:38:05.913Z,77.84
2019-01-30T05:40:58.025Z,77.40
2019-01-30T05:43:28.905Z,77.88
2019-01-30T05:45:59.638Z,76.59
2019-01-30T05:48:30.539Z,76.53
2019-01-30T05:51:20.467Z,75.82
2019-01-30T05:53:51.558Z,75.69
2019-01-30T05:56:22.178Z,75.19
2019-01-30T05:58:52.631Z,75.32
2019-01-30T06:01:42.229Z,75.78
2019-01-30T06:04:48.626Z,75.81
2019-01-30T06:14:09.678Z,75.77
2019-01-30T06:16:51.534Z,75.54
2019-01-30T06:19:32.901Z,75.48
2019-01-30T06:22:03.737Z,75.15
2019-01-30T06:24:54.277Z,75.04
2019-01-30T06:27:43.767Z,74.51
2019-01-30T06:30:35.474Z,74.20
2019-01-30T06:33:43.858Z,74.04
2019-01-30T06:36:14.320Z,73.70
2019-01-30T06:39:05.814Z,73.29
2019-01-30T06:41:36.310Z,73.02
2019-01-30T06:44:25.736Z,73.15
2019-01-30T06:46:56.373Z,73.47
2019-01-30T06:49:26.842Z,74.10
2019-01-30T06:51:57.748Z,73.44
2019-01-30T06:54:47.395Z,73.06
2019-01-30T06:57:17.819Z,73.19
2019-01-30T07:00:00.475Z,73.65
2019-01-30T07:02:42.092Z,73.47
2019-01-30T07:08:04.534Z,72.40
2019-01-30T07:10:54.285Z,72.30
2019-01-30T07:13:44.939Z,73.27
2019-01-30T07:16:34.349Z,72.70
2019-01-30T07:19:24.142Z,72.79
2019-01-30T07:24:46.257Z,73.54
2019-01-30T07:27:35.764Z,74.03
2019-01-30T07:30:26.700Z,73.67
2019-01-30T07:32:57.484Z,74.69
2019-01-30T07:35:28.181Z,72.85
2019-01-30T07:37:58.966Z,72.85
2019-01-30T07:40:29.456Z,72.68
2019-01-30T07:42:59.930Z,72.40
2019-01-30T07:45:49.343Z,72.75
2019-01-30T07:48:38.975Z,71.65
2019-01-30T07:51:09.585Z,71.58
2019-01-30T07:54:01.474Z,71.71
2019-01-30T07:56:31.968Z,72.29
2019-01-30T07:59:21.663Z,72.60
2019-01-30T08:02:11.072Z,72.19
2019-01-30T08:05:00.917Z,72.25
2019-01-30T08:07:31.483Z,72.40
2019-01-30T08:10:03.238Z,72.06
2019-01-30T08:12:52.622Z,72.48
2019-01-30T08:15:42.181Z,72.76
2019-01-30T08:18:31.919Z,73.20
2019-01-30T08:21:21.514Z,72.64
2019-01-30T08:24:11.223Z,72.62
2019-01-30T08:26:41.930Z,72.61
2019-01-30T08:29:12.712Z,72.37
2019-01-30T08:31:43.520Z,71.81
2019-01-30T08:34:14.173Z,72.25
2019-01-30T08:36:45.719Z,71.11
2019-01-30T08:39:35.359Z,70.98
2019-01-30T08:42:24.774Z,70.59
2019-01-30T08:44:59.942Z,70.54
2019-01-30T08:47:32.511Z,71.31
2019-01-30T08:50:22.523Z,72.14
2019-01-30T08:53:04.625Z,72.56
2019-01-30T08:55:35.984Z,71.52
2019-01-30T08:58:25.473Z,71.10
2019-01-30T09:00:56.537Z,70.57
2019-01-30T09:03:27.013Z,68.83
2019-01-30T09:06:17.045Z,67.88
2019-01-30T09:09:08.789Z,67.76
2019-01-30T09:11:58.471Z,67.46
2019-01-30T09:14:28.934Z,67.62
2019-01-30T09:17:18.628Z,67.51
2019-01-30T09:19:49.719Z,67.82
2019-01-30T09:22:40.008Z,67.73
2019-01-30T09:25:12.210Z,67.75
2019-01-30T09:27:43.596Z,67.43
2019-01-30T09:30:34.243Z,67.07
2019-01-30T09:33:25.860Z,66.82
2019-01-30T09:36:16.180Z,68.40
2019-01-30T09:39:08.839Z,66.64
2019-01-30T09:41:39.434Z,66.79
2019-01-30T09:44:10.524Z,65.40
2019-01-30T09:46:40.970Z,65.68
2019-01-30T09:49:30.428Z,66.59
2019-01-30T09:52:01.190Z,67.59
2019-01-30T09:54:31.820Z,66.74
2019-01-30T09:57:02.606Z,66.56
2019-01-30T09:59:33.319Z,66.64
2019-01-30T10:02:25.327Z,67.18
2019-01-30T10:04:56.776Z,65.00
2019-01-30T10:07:27.455Z,65.63
2019-01-30T10:09:58.139Z,65.22
2019-01-30T10:12:29.202Z,65.92
2019-01-30T10:14:59.615Z,64.95
2019-01-30T10:17:31.111Z,64.43
2019-01-30T10:20:01.612Z,64.05
2019-01-30T10:22:32.110Z,63.44
2019-01-30T10:25:02.831Z,64.44
2019-01-30T10:27:33.256Z,63.52
2019-01-30T10:33:25.051Z,61.90
2019-01-30T10:35:55.617Z,61.43
2019-01-30T10:38:26.380Z,62.65
2019-01-30T10:40:57.043Z,61.31
2019-01-30T10:43:46.794Z,61.44
2019-01-30T10:46:17.221Z,59.71
2019-01-30T10:48:47.848Z,60.84
2019-01-30T10:51:18.538Z,60.78
2019-01-30T10:53:49.452Z,60.96
2019-01-30T10:56:20.461Z,60.91
2019-01-30T10:58:50.950Z,60.59
2019-01-30T11:01:40.387Z,60.62
2019-01-30T11:04:11.213Z,60.34
2019-01-30T11:06:41.599Z,60.76
2019-01-30T11:09:12.511Z,61.28
2019-01-30T11:12:02.244Z,61.17
2019-01-30T11:14:33.110Z,61.97
2019-01-30T11:17:23.876Z,61.94
2019-01-30T11:19:54.304Z,61.49
2019-01-30T11:22:24.725Z,60.80
2019-01-30T11:24:55.865Z,61.45
2019-01-30T11:27:26.369Z,60.78
2019-01-30T11:29:56.862Z,61.36
2019-01-30T11:32:46.564Z,59.33
2019-01-30T11:35:17.332Z,59.33
2019-01-30T11:38:08.840Z,60.45
2019-01-30T11:40:40.712Z,61.42
2019-01-30T11:43:30.559Z,60.28
2019-01-30T11:46:01.683Z,60.55
2019-01-30T11:48:56.403Z,59.87
2019-01-30T11:51:24.113Z,60.58
2019-01-30T11:53:54.813Z,59.43
2019-01-30T11:56:25.357Z,59.21
2019-01-30T11:59:15.077Z,59.06
2019-01-30T12:05:41.339Z,58.94
2019-01-30T12:10:52.536Z,59.74
2019-01-30T12:13:23.171Z,59.56
2019-01-30T12:15:57.393Z,59.57
2019-01-30T12:18:28.702Z,59.52
2019-01-30T12:20:59.528Z,59.82
2019-01-30T12:23:29.915Z,59.03
2019-01-30T12:26:00.386Z,59.14
2019-01-30T12:28:30.792Z,58.68
2019-01-30T12:31:02.510Z,59.56
2019-01-30T12:33:33.038Z,60.06
2019-01-30T12:36:04.299Z,60.31
2019-01-30T12:38:34.826Z,60.70
2019-01-30T12:41:05.762Z,60.16
2019-01-30T12:43:36.157Z,60.42
2019-01-30T12:46:06.891Z,60.63
2019-01-30T12:48:40.523Z,60.12
2019-01-30T12:51:10.999Z,60.58
2019-01-30T12:56:24.249Z,59.90
2019-01-30T12:58:54.778Z,59.96
2019-01-30T13:01:25.547Z,60.11
2019-01-30T13:04:17.369Z,60.76
2019-01-30T13:07:07.040Z,61.61
2019-01-30T13:09:37.406Z,62.07
2019-01-30T13:12:08.395Z,61.88
2019-01-30T13:14:58.181Z,62.22
2019-01-30T13:17:29.571Z,62.78
2019-01-30T13:20:00.712Z,63.20
2019-01-30T13:22:52.153Z,63.77
2019-01-30T13:25:31.789Z,64.88
2019-01-30T13:28:02.609Z,65.29
2019-01-30T13:30:38.014Z,65.71
2019-01-30T13:33:28.748Z,65.99
2019-01-30T13:35:59.368Z,66.13
2019-01-30T13:38:30.334Z,66.79
2019-01-30T13:41:01.383Z,67.11
2019-01-30T13:43:51.051Z,66.47
2019-01-30T13:46:21.513Z,66.27
2019-01-30T13:48:52.133Z,66.53
2019-01-30T13:51:41.869Z,65.90
2019-01-30T13:54:24.023Z,65.70
2019-01-30T13:56:54.975Z,64.98
2019-01-30T13:59:46.185Z,64.17
2019-01-30T14:02:17.104Z,63.63
2019-01-30T14:04:59.355Z,64.47
2019-01-30T14:07:42.221Z,64.60
2019-01-30T14:10:13.156Z,65.01
2019-01-30T14:12:43.967Z,66.13
2019-01-30T14:15:19.649Z,67.09
2019-01-30T14:17:50.493Z,67.80
2019-01-30T14:20:21.331Z,67.70
2019-01-30T14:22:51.976Z,68.43
2019-01-30T14:25:42.261Z,68.55
2019-01-30T14:28:13.060Z,69.45
2019-01-30T14:30:43.438Z,70.65
2019-01-30T14:33:13.825Z,72.66
2019-01-30T14:36:05.795Z,73.19
2019-01-30T14:38:37.226Z,73.64
2019-01-30T14:41:07.610Z,74.47
2019-01-30T14:43:57.247Z,74.93
2019-01-30T14:46:46.852Z,74.97
2019-01-30T14:49:17.368Z,75.93
2019-01-30T14:52:06.751Z,77.13
2019-01-30T14:54:56.536Z,77.43
2019-01-30T14:57:46.315Z,78.39
2019-01-30T15:00:20.223Z,80.72
2019-01-30T15:03:11.486Z,82.46
2019-01-30T15:06:01.010Z,84.13
2019-01-30T15:08:51.150Z,85.38
2019-01-30T15:11:21.678Z,86.47
2019-01-30T15:14:11.186Z,87.65
2019-01-30T15:17:01.008Z,88.67
2019-01-30T15:19:50.676Z,88.73
2019-01-30T15:22:40.302Z,88.62
2019-01-30T15:25:57.294Z,88.23
2019-01-30T15:28:46.770Z,88.56
2019-01-30T15:31:17.709Z,88.65
2019-01-30T15:34:07.184Z,87.84
2019-01-30T15:36:57.323Z,87.49
2019-01-30T15:39:47.199Z,87.58
2019-01-30T15:42:18.016Z,87.14
2019-01-30T15:44:48.498Z,87.80
2019-01-30T15:47:20.897Z,87.61
2019-01-30T15:49:52.022Z,87.26
2019-01-30T15:52:41.562Z,87.54
2019-01-30T15:55:31.735Z,87.40
2019-01-30T15:58:21.553Z,87.45
2019-01-30T16:01:30.398Z,87.76
2019-01-30T16:04:20.002Z,87.59
2019-01-30T16:07:10.063Z,88.06
2019-01-30T16:09:40.678Z,88.46
2019-01-30T16:12:30.155Z,88.11
2019-01-30T16:15:24.863Z,88.77
2019-01-30T16:17:55.696Z,87.55
2019-01-30T16:20:45.361Z,87.51
2019-01-30T16:23:34.853Z,87.79
2019-01-30T16:26:05.668Z,87.54
2019-01-30T16:28:57.579Z,88.06
2019-01-30T16:31:47.296Z,87.69
2019-01-30T16:34:17.972Z,87.69
2019-01-30T16:36:48.883Z,88.43
2019-01-30T16:39:38.629Z,87.17
2019-01-30T16:42:31.645Z,87.84
2019-01-30T16:45:45.033Z,87.68
2019-01-30T16:48:37.287Z,87.80
2019-01-30T16:54:59.460Z,85.54
2019-01-30T16:57:49.496Z,84.86
2019-01-30T17:03:49.376Z,84.51
2019-01-30T17:06:39.026Z,83.71
2019-01-30T17:09:47.349Z,82.90
2019-01-30T17:18:44.485Z,82.98
2019-01-30T17:21:55.967Z,82.76
2019-01-30T17:28:27.092Z,82.13
2019-01-30T17:34:28.274Z,83.00
2019-01-30T17:45:22.108Z,84.93
2019-01-30T17:48:04.180Z,85.25
2019-01-30T17:50:45.869Z,85.50
2019-01-30T17:53:27.311Z,85.71
2019-01-30T17:55:58.106Z,84.50
2019-01-30T17:58:47.954Z,83.73
2019-01-30T18:01:39.937Z,82.21
2019-01-30T18:04:29.838Z,79.85
2019-01-30T18:07:00.780Z,77.39
2019-01-30T18:09:51.532Z,77.00
2019-01-30T18:12:22.189Z,76.63
2019-01-30T18:14:53.790Z,75.80
2019-01-30T18:17:43.523Z,76.13
2019-01-30T18:20:51.970Z,75.07
2019-01-30T18:23:22.592Z,75.46
2019-01-30T18:26:12.243Z,75.39
2019-01-30T18:28:42.812Z,76.62
2019-01-30T18:31:33.704Z,75.94
2019-01-30T18:34:06.334Z,76.17
2019-01-30T18:36:56.061Z,76.32
2019-01-30T18:39:45.752Z,76.11
2019-01-30T18:42:35.731Z,76.43
2019-01-30T18:45:25.803Z,76.92
2019-01-30T18:48:15.433Z,78.31
2019-01-30T18:51:05.264Z,78.66
2019-01-30T18:53:38.088Z,79.68
2019-01-30T18:56:08.943Z,79.88
2019-01-30T18:58:53.393Z,79.72
2019-01-30T19:01:24.213Z,79.48
2019-01-30T19:04:16.622Z,80.14
2019-01-30T19:06:52.396Z,80.17
2019-01-30T19:09:42.432Z,80.55
2019-01-30T19:12:31.973Z,80.41
2019-01-30T19:17:58.380Z,79.87
2019-01-30T19:20:48.939Z,80.14
2019-01-30T19:23:38.944Z,80.26
2019-01-30T19:29:41.888Z,81.69
2019-01-30T19:32:33.762Z,82.05
2019-01-30T19:35:44.419Z,81.63
2019-01-30T19:38:15.226Z,81.42
2019-01-30T19:41:05.105Z,81.30
2019-01-30T19:43:54.606Z,81.15
2019-01-30T19:46:44.450Z,79.70
2019-01-30T19:52:57.762Z,79.57
2019-01-30T19:55:36.781Z,77.15
2019-01-30T19:58:19.596Z,77.22
2019-01-30T20:01:01.891Z,77.96
2019-01-30T20:03:53.083Z,78.44
2019-01-30T20:12:51.546Z,74.98
2019-01-30T20:15:41.452Z,75.14
2019-01-30T20:18:52.926Z,74.03
2019-01-30T20:21:43.683Z,74.75
2019-01-30T20:24:14.486Z,74.19
2019-01-30T20:27:06.681Z,76.32
2019-01-30T20:33:00.076Z,77.72
2019-01-30T20:35:43.549Z,78.63
2019-01-30T20:38:32.440Z,77.70
2019-01-30T20:41:05.423Z,77.40
2019-01-30T20:43:36.153Z,78.22
2019-01-30T20:46:28.259Z,79.09
2019-01-30T20:49:19.464Z,79.54
2019-01-30T20:52:09.384Z,77.95
2019-01-30T20:55:17.738Z,78.49
2019-01-30T20:57:48.647Z,79.80
2019-01-30T21:00:38.853Z,80.89
2019-01-30T21:03:28.909Z,81.78
2019-01-30T21:06:10.715Z,82.89
2019-01-30T21:08:51.216Z,82.98
2019-01-30T21:11:22.462Z,82.77
2019-01-30T21:13:53.017Z,83.26
2019-01-30T21:16:43.371Z,83.62
2019-01-30T21:19:33.622Z,84.36
2019-01-30T21:22:24.657Z,84.56
2019-01-30T21:25:15.351Z,84.53
2019-01-30T21:28:05.196Z,84.59
2019-01-30T21:30:58.719Z,84.15
2019-01-30T21:33:37.179Z,84.02
2019-01-30T21:36:07.758Z,83.95
2019-01-30T21:38:57.442Z,84.37
2019-01-30T21:41:28.073Z,84.32
2019-01-30T21:44:19.672Z,84.24
2019-01-30T21:46:50.738Z,84.53
2019-01-30T21:49:21.345Z,84.63
2019-01-30T21:52:11.259Z,83.99
2019-01-30T21:55:01.401Z,83.93
2019-01-30T21:57:50.981Z,83.63
2019-01-30T22:00:40.929Z,83.30
2019-01-30T22:06:30.575Z,83.66
2019-01-30T22:09:10.878Z,83.95
2019-01-30T22:12:00.777Z,83.60
2019-01-30T22:14:33.343Z,84.03
2019-01-30T22:17:03.982Z,84.10
2019-01-30T22:19:53.529Z,83.96
2019-01-30T22:22:43.332Z,84.11
2019-01-30T22:25:32.961Z,84.34
2019-01-30T22:28:24.400Z,84.47
2019-01-30T22:31:14.905Z,85.77
2019-01-30T22:34:05.428Z,85.51
2019-01-30T22:36:55.482Z,85.92
2019-01-30T22:39:46.162Z,85.23
2019-01-30T22:42:35.621Z,84.93
2019-01-30T22:45:07.170Z,85.00
2019-01-30T22:47:56.749Z,85.19
2019-01-30T22:50:46.469Z,85.36
2019-01-30T22:53:36.002Z,85.44
2019-01-30T22:56:06.845Z,85.56
2019-01-30T22:58:47.304Z,85.47
2019-01-30T23:01:59.832Z,84.96
2019-01-30T23:05:08.305Z,84.44
2019-01-30T23:08:23.278Z,84.87
2019-01-30T23:11:27.114Z,85.81
2019-01-30T23:14:35.891Z,86.05
2019-01-30T23:17:44.262Z,86.40
2019-01-30T23:20:53.094Z,86.48
2019-01-30T23:24:01.693Z,86.77
2019-01-30T23:26:56.959Z,86.72
2019-01-30T23:30:05.435Z,85.89
2019-01-30T23:33:13.861Z,85.74
2019-01-30T23:36:22.205Z,85.66
2019-01-30T23:39:30.494Z,86.06
2019-01-30T23:42:38.955Z,86.03
2019-01-30T23:45:47.555Z,86.55
2019-01-30T23:48:43.712Z,87.03
2019-01-30T23:51:52.101Z,87.40
2019-01-30T23:55:02.915Z,87.30
2019-01-30T23:57:44.691Z,87.42
